Time;durP1;ratioP1;P1;durP2;ratioP2;P2;SDS_P1;SDS_P2;PMS_P1;PMS_P2;Temp;Humidity;BMP_temperature;BMP_pressure;BME280_temperature;BME280_humidity;BME280_pressure;Samples;Min_cycle;Max_cycle;Signal;HPM_P1;HPM_P2
2021/12/19 00:04:32;;;;;;;13.68;7.18;;;-3.80;99.90;;;;;;5036686;28;20079;-71
2021/12/19 00:09:42;;;;;;;13.90;6.75;;;-4.00;99.90;;;;;;5036780;28;20397;-71
2021/12/19 00:12:09;;;;;;;13.27;6.13;;;-3.90;99.90;;;;;;5034982;28;20037;-71
2021/12/19 00:14:36;;;;;;;11.45;6.40;;;-3.90;99.90;;;;;;5035237;28;20021;-71
2021/12/19 00:17:02;;;;;;;14.63;6.57;;;-3.90;99.90;;;;;;5034895;28;20025;-71
2021/12/19 00:19:28;;;;;;;13.32;7.15;;;-3.80;99.90;;;;;;5035181;28;20056;-71
2021/12/19 00:21:54;;;;;;;13.20;7.32;;;-3.80;99.90;;;;;;5035067;28;20064;-71
2021/12/19 00:24:20;;;;;;;15.07;7.30;;;-3.70;99.90;;;;;;5035223;28;20021;-71
2021/12/19 00:26:46;;;;;;;15.02;7.30;;;-3.70;99.90;;;;;;5034994;28;20036;-71
2021/12/19 00:29:12;;;;;;;15.05;7.05;;;-3.80;99.90;;;;;;5034861;28;20029;-71
2021/12/19 00:31:37;;;;;;;17.48;7.60;;;-3.80;99.90;;;;;;5035061;28;20040;-71
2021/12/19 00:34:04;;;;;;;15.95;6.72;;;-3.80;99.90;;;;;;5034780;28;20052;-70
2021/12/19 00:36:30;;;;;;;15.52;7.22;;;-3.90;99.90;;;;;;5034451;28;20022;-71
2021/12/19 00:38:57;;;;;;;16.30;7.22;;;-3.90;99.90;;;;;;5034718;28;20022;-71
2021/12/19 00:41:23;;;;;;;12.45;6.88;;;-3.90;99.90;;;;;;5034129;28;20064;-71
2021/12/19 00:44:06;;;;;;;16.20;6.90;;;-3.90;99.90;;;;;;5034546;28;20366;-71
2021/12/19 00:46:36;;;;;;;13.65;6.50;;;-3.90;99.90;;;;;;5035128;28;20017;-71
2021/12/19 00:49:02;;;;;;;14.35;7.75;;;-3.90;99.90;;;;;;5034424;28;20541;-71
2021/12/19 00:51:28;;;;;;;15.27;7.30;;;-3.90;99.90;;;;;;5034309;28;20120;-70
2021/12/19 00:53:55;;;;;;;19.20;8.18;;;-3.90;99.90;;;;;;5034403;28;20022;-71
2021/12/19 00:56:21;;;;;;;14.05;7.10;;;-3.80;99.90;;;;;;5034272;28;20029;-71
2021/12/19 00:58:47;;;;;;;19.05;9.05;;;-3.80;99.90;;;;;;5034351;28;20104;-70
2021/12/19 01:01:14;;;;;;;18.70;7.13;;;-3.90;99.90;;;;;;5034701;28;20148;-70
2021/12/19 01:03:44;;;;;;;14.38;7.15;;;-3.90;99.90;;;;;;4997366;28;20022;-70
2021/12/19 01:06:11;;;;;;;13.65;6.72;;;-4.00;99.90;;;;;;4995930;28;20022;-70
2021/12/19 01:08:37;;;;;;;13.55;6.47;;;-4.00;99.90;;;;;;5033824;28;20370;-70
2021/12/19 01:11:03;;;;;;;15.45;6.82;;;-4.00;99.90;;;;;;5032825;28;20549;-70
2021/12/19 01:13:28;;;;;;;13.55;6.63;;;-4.00;99.90;;;;;;5033917;28;20117;-70
2021/12/19 01:15:57;;;;;;;13.90;6.40;;;-4.00;99.90;;;;;;5034016;28;20474;-70
2021/12/19 01:18:23;;;;;;;13.73;6.57;;;-4.10;99.90;;;;;;5034433;28;20022;-70
2021/12/19 01:20:48;;;;;;;10.80;5.68;;;-4.10;99.90;;;;;;5033893;28;20397;-70
2021/12/19 01:23:14;;;;;;;14.70;6.88;;;-4.10;99.90;;;;;;5033584;28;20400;-70
2021/12/19 01:25:40;;;;;;;12.25;5.25;;;-4.00;99.90;;;;;;5034115;28;20032;-70
2021/12/19 01:28:06;;;;;;;17.33;7.05;;;-4.00;99.90;;;;;;5033881;28;20092;-70
2021/12/19 01:30:32;;;;;;;13.73;7.00;;;-4.00;99.90;;;;;;5032847;28;20075;-70
2021/12/19 01:32:58;;;;;;;15.13;6.95;;;-4.00;99.90;;;;;;5031753;28;20034;-70
2021/12/19 01:35:24;;;;;;;12.75;5.90;;;-4.00;99.90;;;;;;5033714;28;20018;-70
2021/12/19 01:37:51;;;;;;;14.05;6.55;;;-3.90;99.90;;;;;;5033071;28;20104;-70
2021/12/19 01:40:18;;;;;;;14.85;6.38;;;-3.90;99.90;;;;;;5033639;28;20040;-70
2021/12/19 01:42:51;;;;;;;15.02;6.70;;;-3.90;99.90;;;;;;5033622;28;20104;-70
2021/12/19 01:45:37;;;;;;;14.05;5.78;;;-4.00;99.90;;;;;;5033663;28;20029;-70
2021/12/19 01:48:05;;;;;;;11.68;6.13;;;-4.00;99.90;;;;;;5033689;28;20083;-70
2021/12/19 01:50:33;;;;;;;13.90;5.80;;;-4.00;99.90;;;;;;5033471;28;20032;-70
2021/12/19 01:53:00;;;;;;;15.02;7.35;;;-4.10;99.90;;;;;;5032351;28;20136;-70
2021/12/19 01:55:26;;;;;;;12.98;6.93;;;-4.10;99.90;;;;;;5033454;28;20053;-70
2021/12/19 01:57:52;;;;;;;14.48;6.75;;;-4.10;99.90;;;;;;5033566;28;20060;-70
2021/12/19 02:00:21;;;;;;;14.77;6.65;;;-4.10;99.90;;;;;;5033965;28;20018;-70
2021/12/19 02:02:47;;;;;;;14.13;6.35;;;-4.10;99.90;;;;;;5033363;28;20031;-70
2021/12/19 02:05:13;;;;;;;10.80;6.32;;;-4.10;99.90;;;;;;5033333;28;20029;-70
2021/12/19 02:07:43;;;;;;;13.15;5.78;;;-4.20;99.90;;;;;;5033051;28;20109;-70
2021/12/19 02:10:09;;;;;;;14.02;5.97;;;-4.20;99.90;;;;;;5033838;28;20508;-70
2021/12/19 02:12:37;;;;;;;12.85;5.50;;;-4.20;99.90;;;;;;5033493;28;20030;-70
2021/12/19 02:15:03;;;;;;;13.57;6.15;;;-4.20;99.90;;;;;;5033291;28;20401;-70
2021/12/19 02:17:29;;;;;;;13.32;6.22;;;-4.20;99.90;;;;;;5033200;28;20029;-70
2021/12/19 02:19:57;;;;;;;11.80;5.13;;;-4.20;99.90;;;;;;5031935;28;20075;-70
2021/12/19 02:22:22;;;;;;;9.60;5.35;;;-4.20;99.90;;;;;;5033104;28;20064;-70
2021/12/19 02:24:48;;;;;;;12.48;5.80;;;-4.30;99.90;;;;;;5031819;28;20033;-70
2021/12/19 02:27:14;;;;;;;15.27;6.82;;;-4.30;99.90;;;;;;5033118;28;20388;-70
2021/12/19 02:29:40;;;;;;;16.90;8.13;;;-4.20;99.90;;;;;;5033328;28;20102;-70
2021/12/19 02:32:06;;;;;;;14.75;7.18;;;-4.30;99.90;;;;;;5033574;28;20033;-70
2021/12/19 02:34:38;;;;;;;14.15;5.85;;;-4.40;99.90;;;;;;5033090;28;20018;-70
2021/12/19 02:37:22;;;;;;;8.38;4.90;;;-4.40;99.90;;;;;;5032863;28;20493;-70
2021/12/19 02:48:11;;;;;;;14.60;5.68;;;-4.50;99.90;;;;;;5034233;28;20058;-70
2021/12/19 02:50:43;;;;;;;16.25;5.82;;;-4.50;99.90;;;;;;5033199;28;20033;-70
2021/12/19 02:53:09;;;;;;;10.88;5.20;;;-4.40;99.90;;;;;;5036703;28;20053;-70
2021/12/19 02:55:35;;;;;;;10.48;4.88;;;-4.40;99.90;;;;;;5038477;28;20017;-70
2021/12/19 02:58:01;;;;;;;10.65;5.45;;;-4.50;99.90;;;;;;5037714;28;20029;-70
2021/12/19 03:00:28;;;;;;;11.52;5.22;;;-4.50;99.90;;;;;;5037647;28;20093;-70
2021/12/19 03:02:54;;;;;;;9.63;5.28;;;-4.70;99.90;;;;;;5037269;28;20040;-70
2021/12/19 03:05:20;;;;;;;13.52;5.95;;;-4.80;99.90;;;;;;5041050;28;20022;-70
2021/12/19 03:07:49;;;;;;;12.52;6.35;;;-5.00;99.90;;;;;;5041678;28;20030;-70
2021/12/19 03:13:20;;;;;;;10.95;5.57;;;-5.20;99.90;;;;;;5042398;28;20481;-70
2021/12/19 03:18:31;;;;;;;11.15;5.10;;;-5.10;99.90;;;;;;5041962;28;20056;-70
2021/12/19 03:20:57;;;;;;;9.60;5.20;;;-5.00;99.90;;;;;;5042580;28;20052;-71
2021/12/19 03:23:23;;;;;;;11.63;5.60;;;-4.90;99.90;;;;;;5040682;28;20025;-70
2021/12/19 03:25:49;;;;;;;13.15;5.38;;;-4.80;99.90;;;;;;5039958;28;20451;-70
2021/12/19 03:28:21;;;;;;;10.45;5.75;;;-4.80;99.90;;;;;;5040983;28;20030;-70
2021/12/19 03:30:51;;;;;;;10.35;5.70;;;-4.70;99.90;;;;;;5041053;28;20029;-66
2021/12/19 03:33:16;;;;;;;11.48;5.90;;;-4.60;99.90;;;;;;5037019;28;20049;-66
2021/12/19 03:35:43;;;;;;;9.32;5.13;;;-4.60;99.90;;;;;;5037452;28;20052;-66
2021/12/19 03:38:11;;;;;;;10.48;5.30;;;-4.60;99.90;;;;;;5036439;28;20036;-66
2021/12/19 03:40:40;;;;;;;12.48;5.18;;;-4.60;99.90;;;;;;5035427;28;20025;-66
2021/12/19 03:43:09;;;;;;;10.02;5.32;;;-4.60;99.90;;;;;;5036635;28;20030;-66
2021/12/19 03:45:36;;;;;;;12.23;5.55;;;-4.60;99.90;;;;;;5035391;28;20097;-66
2021/12/19 03:48:04;;;;;;;9.05;4.82;;;-4.60;99.90;;;;;;5035648;28;20143;-66
2021/12/19 03:50:35;;;;;;;7.90;4.30;;;-4.50;99.90;;;;;;5036877;28;20488;-66
2021/12/19 03:53:01;;;;;;;7.00;4.05;;;-4.50;99.90;;;;;;5034879;28;20116;-66
2021/12/19 03:55:28;;;;;;;6.57;3.70;;;-4.50;99.90;;;;;;5036363;28;20029;-66
2021/12/19 03:57:57;;;;;;;7.68;3.83;;;-4.60;99.90;;;;;;5034758;28;20112;-67
2021/12/19 04:00:30;;;;;;;6.80;3.20;;;-4.70;99.90;;;;;;5034987;28;20485;-66
2021/12/19 04:03:00;;;;;;;9.07;3.75;;;-4.60;99.90;;;;;;5036603;28;20021;-66
2021/12/19 04:05:27;;;;;;;7.30;3.78;;;-4.60;99.90;;;;;;5036806;28;20036;-66
2021/12/19 04:07:54;;;;;;;7.13;3.70;;;-4.60;99.90;;;;;;5035668;28;20030;-66
2021/12/19 04:10:22;;;;;;;9.80;4.15;;;-4.60;99.90;;;;;;5035361;28;20061;-66
2021/12/19 04:12:49;;;;;;;14.27;5.07;;;-4.60;99.90;;;;;;5036269;28;20026;-65
2021/12/19 04:15:16;;;;;;;9.07;5.00;;;-4.60;99.90;;;;;;5033992;28;20401;-66
2021/12/19 04:17:42;;;;;;;8.82;4.60;;;-4.70;99.90;;;;;;5035921;28;20022;-66
2021/12/19 04:20:09;;;;;;;11.85;4.88;;;-4.70;99.90;;;;;;5034704;28;20021;-66
2021/12/19 04:22:35;;;;;;;10.02;4.60;;;-4.80;99.90;;;;;;5035537;28;20040;-66
2021/12/19 04:25:01;;;;;;;7.78;4.10;;;-4.80;99.90;;;;;;5036286;28;20025;-66
2021/12/19 04:27:27;;;;;;;8.30;4.32;;;-4.90;99.90;;;;;;5035546;28;20056;-66
2021/12/19 04:29:54;;;;;;;10.50;5.05;;;-4.90;99.90;;;;;;5035539;28;20021;-66
2021/12/19 04:32:26;;;;;;;7.57;4.20;;;-4.90;99.90;;;;;;5035695;28;20025;-66
2021/12/19 04:34:52;;;;;;;12.15;4.38;;;-4.90;99.90;;;;;;5034190;28;20409;-66
2021/12/19 04:40:01;;;;;;;9.00;4.55;;;-4.90;99.90;;;;;;5035429;28;20424;-66
2021/12/19 04:53:20;;;;;;;6.70;3.70;;;-5.00;99.90;;;;;;5034334;28;20068;-66
2021/12/19 05:14:14;;;;;;;7.95;5.00;;;-5.10;99.90;;;;;;5034613;28;20079;-66
2021/12/19 05:16:43;;;;;;;16.50;6.05;;;-5.10;99.90;;;;;;5032797;28;20022;-65
2021/12/19 05:19:22;;;;;;;10.20;5.13;;;-5.10;99.90;;;;;;5034188;28;20489;-65
2021/12/19 05:21:50;;;;;;;11.50;5.20;;;-5.10;99.90;;;;;;5034437;28;20465;-66
2021/12/19 05:24:45;;;;;;;15.73;6.38;;;-5.00;99.90;;;;;;5032376;28;20439;-66
2021/12/19 05:27:08;;;;;;;;;;;-5.00;99.90;;;;;;5034064;28;20025;-65
2021/12/19 05:29:35;;;;;;;62.30;19.63;;;-5.20;99.90;;;;;;5033733;28;19905;-65
2021/12/19 05:32:03;;;;;;;92.63;30.58;;;-5.40;99.90;;;;;;5034194;28;20021;-66
2021/12/19 05:34:30;;;;;;;108.47;39.20;;;-5.50;99.90;;;;;;5033710;28;20025;-65
2021/12/19 05:47:45;;;;;;;29.58;15.68;;;-5.30;99.90;;;;;;5033854;28;20397;-66
2021/12/19 05:50:13;;;;;;;24.90;14.40;;;-5.30;99.90;;;;;;5042894;28;20417;-65
2021/12/19 05:52:40;;;;;;;23.10;11.82;;;-5.20;99.90;;;;;;5043131;28;20122;-66
2021/12/19 05:55:07;;;;;;;13.60;8.05;;;-5.10;99.90;;;;;;5043610;28;20091;-71
2021/12/19 05:57:33;;;;;;;12.55;5.82;;;-5.10;99.90;;;;;;5043350;28;20025;-71
2021/12/19 05:59:59;;;;;;;10.25;5.68;;;-5.10;99.90;;;;;;5042143;28;20056;-70
2021/12/19 06:02:26;;;;;;;8.93;5.57;;;-5.20;99.90;;;;;;5040815;28;20021;-70
2021/12/19 06:04:52;;;;;;;12.70;5.90;;;-5.20;99.90;;;;;;5039451;28;20025;-71
2021/12/19 06:07:18;;;;;;;10.60;5.00;;;-5.20;99.90;;;;;;5032184;28;20062;-69
2021/12/19 06:09:44;;;;;;;9.48;4.47;;;-5.10;99.90;;;;;;5020290;28;20022;-70
2021/12/19 06:12:10;;;;;;;10.77;5.20;;;-5.10;99.90;;;;;;5021238;28;20083;-70
2021/12/19 06:14:36;;;;;;;15.73;7.55;;;-5.10;99.90;;;;;;5019064;28;20033;-71
2021/12/19 06:17:04;;;;;;;23.88;9.60;;;-5.10;99.90;;;;;;5018189;28;20018;-70
2021/12/19 06:19:30;;;;;;;27.50;10.73;;;-5.10;99.90;;;;;;5016701;28;20026;-70
2021/12/19 06:21:56;;;;;;;21.08;6.85;;;-5.10;99.90;;;;;;5017376;28;20026;-70
2021/12/19 06:24:23;;;;;;;14.43;6.72;;;-5.10;99.90;;;;;;5018517;28;20028;-70
2021/12/19 06:26:49;;;;;;;31.52;12.25;;;-5.10;99.90;;;;;;5018531;28;20033;-70
2021/12/19 06:29:15;;;;;;;14.00;5.78;;;-5.20;99.90;;;;;;5016545;28;20080;-70
2021/12/19 06:31:40;;;;;;;21.25;7.10;;;-5.30;99.90;;;;;;5015222;28;20026;-70
2021/12/19 06:34:06;;;;;;;15.27;6.63;;;-5.30;99.90;;;;;;5015807;28;20386;-70
2021/12/19 06:36:32;;;;;;;14.40;5.05;;;-5.30;99.90;;;;;;5016619;28;20423;-70
2021/12/19 06:38:58;;;;;;;13.10;5.03;;;-5.40;99.90;;;;;;5015204;28;20105;-70
2021/12/19 06:41:24;;;;;;;9.77;4.45;;;-5.40;99.90;;;;;;5020997;28;20466;-70
2021/12/19 06:43:50;;;;;;;10.88;4.88;;;-5.50;99.90;;;;;;5022342;28;20022;-70
2021/12/19 06:46:16;;;;;;;12.10;5.72;;;-5.50;99.90;;;;;;5020533;28;20377;-70
2021/12/19 06:48:42;;;;;;;12.05;5.70;;;-5.50;99.90;;;;;;5020073;28;20022;-70
2021/12/19 06:51:08;;;;;;;8.05;4.18;;;-5.50;99.90;;;;;;5019965;28;20113;-70
2021/12/19 06:53:35;;;;;;;9.38;5.40;;;-5.50;99.90;;;;;;5018263;28;20390;-70
2021/12/19 06:56:01;;;;;;;8.88;4.53;;;-5.50;99.90;;;;;;5021536;28;20017;-70
2021/12/19 06:58:26;;;;;;;11.38;4.60;;;-5.50;99.90;;;;;;5021356;28;20018;-70
2021/12/19 07:00:52;;;;;;;10.65;5.22;;;-5.50;99.90;;;;;;5019300;28;20462;-70
2021/12/19 07:03:23;;;;;;;11.75;5.05;;;-5.40;99.90;;;;;;5021325;28;20030;-69
2021/12/19 07:05:50;;;;;;;10.32;4.35;;;-5.40;99.90;;;;;;5020742;28;20030;-69
2021/12/19 07:08:16;;;;;;;9.93;4.60;;;-5.50;99.90;;;;;;5036953;28;20390;-69
2021/12/19 07:10:42;;;;;;;10.98;5.13;;;-5.60;99.90;;;;;;5038132;28;20474;-69
2021/12/19 07:13:08;;;;;;;10.38;5.15;;;-5.60;99.90;;;;;;5039665;28;20076;-69
2021/12/19 07:15:34;;;;;;;10.48;5.20;;;-5.60;99.90;;;;;;5037976;28;20448;-69
2021/12/19 07:18:03;;;;;;;13.35;5.47;;;-5.50;99.90;;;;;;5038974;28;20444;-69
2021/12/19 07:20:30;;;;;;;10.52;4.63;;;-5.50;99.90;;;;;;5037884;28;20477;-69
2021/12/19 07:22:57;;;;;;;17.35;7.80;;;-5.40;99.90;;;;;;5038032;28;20029;-69
2021/12/19 07:25:23;;;;;;;75.53;28.63;;;-5.40;99.90;;;;;;5038836;28;20030;-69
2021/12/19 07:27:49;;;;;;;21.92;10.32;;;-5.40;99.90;;;;;;5037556;28;20533;-69
2021/12/19 07:30:15;;;;;;;20.80;9.68;;;-5.40;99.90;;;;;;5039010;28;20045;-69
2021/12/19 07:32:41;;;;;;;22.73;10.48;;;-5.40;99.90;;;;;;5038172;28;20113;-69
2021/12/19 07:35:09;;;;;;;26.45;15.43;;;-5.40;99.90;;;;;;5036684;28;20053;-69
2021/12/19 07:37:38;;;;;;;20.13;12.00;;;-5.40;99.90;;;;;;5036214;28;20053;-69
2021/12/19 07:40:17;;;;;;;20.52;10.98;;;-5.50;99.90;;;;;;5036551;28;20017;-69
2021/12/19 07:42:44;;;;;;;24.63;13.55;;;-5.40;99.90;;;;;;5036691;28;20021;-70
2021/12/19 07:45:13;;;;;;;13.73;8.55;;;-5.40;99.90;;;;;;5035221;28;20033;-69
2021/12/19 07:47:39;;;;;;;16.35;7.97;;;-5.50;99.90;;;;;;5036468;28;20036;-69
2021/12/19 07:50:08;;;;;;;16.67;8.82;;;-5.50;99.90;;;;;;5036033;28;20030;-69
2021/12/19 07:52:34;;;;;;;19.08;9.02;;;-5.50;99.90;;;;;;5034697;28;20052;-68
2021/12/19 07:55:01;;;;;;;22.48;11.88;;;-5.40;99.90;;;;;;5037079;28;20018;-69
2021/12/19 07:57:28;;;;;;;18.48;9.68;;;-5.30;99.90;;;;;;5036351;28;20028;-68
2021/12/19 07:59:54;;;;;;;18.90;10.25;;;-5.30;99.90;;;;;;5036635;28;20024;-69
2021/12/19 08:02:20;;;;;;;17.08;8.77;;;-5.20;99.90;;;;;;5034974;28;20057;-69
2021/12/19 08:04:47;;;;;;;18.63;8.98;;;-5.20;99.90;;;;;;5036238;28;20079;-69
2021/12/19 08:07:14;;;;;;;21.65;10.90;;;-5.10;99.90;;;;;;5034921;28;20397;-69
2021/12/19 08:09:57;;;;;;;15.82;7.63;;;-5.10;99.90;;;;;;5035891;28;20068;-69
2021/12/19 08:12:23;;;;;;;15.73;8.52;;;-5.00;99.90;;;;;;5036002;28;20029;-69
2021/12/19 08:14:49;;;;;;;15.85;9.48;;;-5.00;99.90;;;;;;5034487;28;20029;-69
2021/12/19 08:17:18;;;;;;;24.50;12.80;;;-5.10;99.90;;;;;;5034824;28;20072;-69
2021/12/19 08:19:44;;;;;;;27.70;14.23;;;-5.10;99.90;;;;;;5036283;28;20023;-69
2021/12/19 08:22:13;;;;;;;35.30;18.45;;;-5.10;99.90;;;;;;5036459;28;20416;-69
2021/12/19 08:24:39;;;;;;;26.23;15.10;;;-5.10;99.90;;;;;;5034652;28;20030;-69
2021/12/19 08:27:05;;;;;;;24.50;13.38;;;-5.10;99.90;;;;;;5034810;28;20051;-69
2021/12/19 08:29:31;;;;;;;16.35;10.40;;;-5.00;99.90;;;;;;5035403;28;20026;-69
2021/12/19 08:31:57;;;;;;;15.43;7.70;;;-4.90;99.90;;;;;;5035527;28;20021;-69
2021/12/19 08:34:24;;;;;;;14.07;7.32;;;-4.90;99.90;;;;;;5035858;28;20032;-69
2021/12/19 08:36:50;;;;;;;12.48;6.38;;;-4.80;99.90;;;;;;5035309;28;20045;-69
2021/12/19 08:39:17;;;;;;;13.50;6.68;;;-4.90;99.90;;;;;;5034545;28;20021;-69
2021/12/19 08:41:43;;;;;;;9.80;5.75;;;-4.90;99.90;;;;;;5036771;28;20018;-69
2021/12/19 08:44:09;;;;;;;9.70;5.50;;;-4.90;99.90;;;;;;5035755;28;20037;-69
2021/12/19 08:46:35;;;;;;;8.70;4.57;;;-4.90;99.90;;;;;;5034616;28;20116;-69
2021/12/19 08:49:05;;;;;;;14.43;4.55;;;-4.90;99.90;;;;;;5034249;28;20041;-69
2021/12/19 08:51:32;;;;;;;11.55;5.38;;;-4.90;99.90;;;;;;5035585;28;20025;-69
2021/12/19 08:54:02;;;;;;;12.20;4.80;;;-4.90;99.90;;;;;;5034229;28;20025;-69
2021/12/19 08:56:29;;;;;;;11.88;3.92;;;-4.80;99.90;;;;;;5034210;28;20051;-69
2021/12/19 08:58:56;;;;;;;9.90;4.53;;;-4.80;99.90;;;;;;5035697;28;20445;-69
2021/12/19 09:01:22;;;;;;;14.32;7.07;;;-4.80;99.90;;;;;;5033758;28;20029;-69
2021/12/19 09:03:48;;;;;;;13.65;6.75;;;-4.70;99.90;;;;;;5034424;28;20443;-69
2021/12/19 09:06:14;;;;;;;12.45;7.40;;;-4.70;99.90;;;;;;5035130;28;20104;-69
2021/12/19 09:08:40;;;;;;;17.73;7.07;;;-4.70;99.90;;;;;;5034843;28;20392;-69
2021/12/19 09:11:07;;;;;;;12.30;5.97;;;-4.60;99.90;;;;;;5035333;28;20021;-69
2021/12/19 09:13:33;;;;;;;13.20;5.28;;;-4.60;99.90;;;;;;5035121;28;20060;-69
2021/12/19 09:16:00;;;;;;;15.73;5.72;;;-4.50;99.90;;;;;;5033825;28;20521;-69
2021/12/19 09:18:28;;;;;;;13.23;5.90;;;-4.40;99.90;;;;;;5034541;28;20485;-69
2021/12/19 09:20:54;;;;;;;12.23;5.25;;;-4.40;99.90;;;;;;5035629;28;20021;-69
2021/12/19 09:23:20;;;;;;;9.35;4.72;;;-4.30;99.90;;;;;;5037858;28;20032;-69
2021/12/19 09:25:47;;;;;;;12.82;6.03;;;-4.30;99.90;;;;;;5040954;28;20039;-69
2021/12/19 09:28:13;;;;;;;45.55;19.27;;;-4.30;99.90;;;;;;5041340;28;20025;-69
2021/12/19 09:30:41;;;;;;;15.23;7.63;;;-4.20;99.90;;;;;;5044524;28;20389;-69
2021/12/19 09:33:06;;;;;;;13.80;6.55;;;-4.20;99.90;;;;;;5044463;28;20473;-69
2021/12/19 09:35:34;;;;;;;14.32;6.60;;;-4.10;99.90;;;;;;5042999;28;20026;-69
2021/12/19 09:38:01;;;;;;;19.25;6.85;;;-4.10;99.90;;;;;;5042893;28;20033;-69
2021/12/19 09:40:33;;;;;;;17.90;7.45;;;-4.00;99.90;;;;;;5044007;28;20030;-69
2021/12/19 09:43:03;;;;;;;23.15;7.57;;;-4.00;99.90;;;;;;5043847;28;20064;-69
2021/12/19 09:45:31;;;;;;;17.92;7.30;;;-3.90;99.90;;;;;;5042077;28;20030;-69
2021/12/19 09:47:57;;;;;;;25.83;7.80;;;-3.80;99.90;;;;;;5044942;28;20052;-69
2021/12/19 09:50:24;;;;;;;16.33;5.95;;;-3.80;99.90;;;;;;5046252;28;20044;-69
2021/12/19 09:52:50;;;;;;;17.73;6.57;;;-3.70;99.90;;;;;;5047646;28;20029;-68
2021/12/19 09:55:21;;;;;;;13.32;5.22;;;-3.60;99.90;;;;;;5048673;28;20409;-69
2021/12/19 09:57:52;;;;;;;12.73;5.93;;;-3.50;99.90;;;;;;5048465;28;20048;-69
2021/12/19 10:00:19;;;;;;;14.57;6.07;;;-3.40;99.90;;;;;;5048289;28;20481;-69
2021/12/19 10:02:46;;;;;;;13.15;5.60;;;-3.30;99.90;;;;;;5048216;28;20417;-69
2021/12/19 10:05:17;;;;;;;16.45;7.40;;;-3.20;99.90;;;;;;5050026;28;20029;-69
2021/12/19 10:08:02;;;;;;;;;;;-3.10;99.90;;;;;;5034924;28;20029;-69
2021/12/19 10:10:53;;;;;;;14.25;7.10;;;-3.00;99.90;;;;;;5028781;28;19905;-69
2021/12/19 10:13:31;;;;;;;21.20;8.43;;;-2.90;99.90;;;;;;5028377;28;20428;-69
2021/12/19 10:15:57;;;;;;;33.83;9.77;;;-2.90;99.90;;;;;;5029527;28;20029;-69
2021/12/19 10:18:23;;;;;;;28.10;10.75;;;-2.90;99.90;;;;;;5031011;28;20018;-69
2021/12/19 10:20:57;;;;;;;35.03;9.57;;;-2.80;99.90;;;;;;5031138;28;20489;-69
2021/12/19 10:23:30;;;;;;;27.15;8.35;;;-2.90;99.90;;;;;;5023985;28;20026;-69
2021/12/19 10:26:00;;;;;;;18.00;7.35;;;-2.90;99.90;;;;;;5018090;28;20485;-69
2021/12/19 10:28:28;;;;;;;13.40;6.65;;;-2.90;99.90;;;;;;5017801;28;20029;-69
2021/12/19 10:30:55;;;;;;;20.85;7.93;;;-2.80;99.90;;;;;;5019215;28;20026;-69
2021/12/19 10:33:28;;;;;;;14.25;7.55;;;-2.70;99.90;;;;;;5023418;28;20085;-69
2021/12/19 10:35:57;;;;;;;15.40;6.80;;;-2.60;99.90;;;;;;5019322;28;20021;-69
2021/12/19 10:38:35;;;;;;;16.00;7.97;;;-2.50;99.90;;;;;;5037911;28;20029;-69
2021/12/19 10:41:08;;;;;;;22.85;9.07;;;-2.40;99.90;;;;;;5039116;28;20026;-69
2021/12/19 10:43:41;;;;;;;21.50;8.95;;;-2.30;99.90;;;;;;5039393;28;20108;-69
2021/12/19 10:46:07;;;;;;;22.77;8.40;;;-2.30;99.90;;;;;;5040860;28;20022;-69
2021/12/19 10:48:39;;;;;;;30.55;10.00;;;-2.30;99.90;;;;;;5040433;28;20048;-69
2021/12/19 10:51:11;;;;;;;20.55;9.82;;;-2.20;99.90;;;;;;5040748;28;20033;-69
2021/12/19 10:53:49;;;;;;;21.85;8.60;;;-2.20;99.90;;;;;;5041174;28;20436;-69
2021/12/19 10:56:18;;;;;;;19.90;8.25;;;-2.20;99.90;;;;;;5039639;28;20120;-69
2021/12/19 10:58:55;;;;;;;17.92;8.35;;;-2.10;99.90;;;;;;5039658;28;20493;-69
2021/12/19 11:01:28;;;;;;;12.98;6.55;;;-2.00;99.90;;;;;;5039290;28;20021;-69
2021/12/19 11:04:03;;;;;;;18.95;6.97;;;-2.00;99.90;;;;;;5040178;28;20079;-69
2021/12/19 11:06:39;;;;;;;25.20;7.57;;;-1.90;99.90;;;;;;5041124;28;20041;-69
2021/12/19 11:09:28;;;;;;;16.85;6.45;;;-1.90;99.90;;;;;;5039229;28;20025;-69
2021/12/19 11:12:01;;;;;;;16.20;7.20;;;-1.90;99.90;;;;;;5039851;28;20029;-69
2021/12/19 11:14:32;;;;;;;17.13;7.00;;;-1.80;99.90;;;;;;5044061;28;20025;-68
2021/12/19 11:17:06;;;;;;;15.45;6.90;;;-1.80;99.90;;;;;;5041546;28;20025;-68
2021/12/19 11:19:33;;;;;;;17.23;6.95;;;-1.70;99.90;;;;;;5043262;28;20085;-68
2021/12/19 11:22:00;;;;;;;17.98;6.90;;;-1.60;99.90;;;;;;5041216;28;20029;-68
2021/12/19 11:24:27;;;;;;;15.43;6.65;;;-1.50;99.90;;;;;;5039416;28;20044;-68
2021/12/19 11:26:56;;;;;;;13.63;6.35;;;-1.50;99.90;;;;;;5042327;28;20125;-68
2021/12/19 11:29:23;;;;;;;12.65;6.97;;;-1.40;99.90;;;;;;5042682;28;20028;-68
2021/12/19 11:31:57;;;;;;;20.48;6.32;;;-1.30;99.90;;;;;;5042049;28;20063;-68
2021/12/19 11:34:39;;;;;;;18.10;6.80;;;-1.20;99.90;;;;;;5040134;28;20018;-68
2021/12/19 11:37:16;;;;;;;16.60;7.65;;;-1.20;99.90;;;;;;5034801;28;20038;-68
2021/12/19 11:39:53;;;;;;;17.48;6.43;;;-1.10;99.90;;;;;;5036726;28;20029;-68
2021/12/19 11:42:28;;;;;;;14.88;6.65;;;-1.10;99.90;;;;;;5036510;28;20040;-68
2021/12/19 11:47:49;;;;;;;14.93;7.15;;;-1.00;99.90;;;;;;5036375;28;20029;-68
2021/12/19 11:50:23;;;;;;;16.55;5.95;;;-0.90;99.90;;;;;;5036532;28;20018;-68
2021/12/19 11:52:51;;;;;;;13.20;6.68;;;-0.90;99.90;;;;;;5037081;28;20393;-68
2021/12/19 11:55:19;;;;;;;14.27;6.20;;;-0.80;99.90;;;;;;5036333;28;20049;-68
2021/12/19 11:58:08;;;;;;;12.73;6.32;;;-0.70;99.90;;;;;;5035764;28;20013;-68
2021/12/19 12:00:47;;;;;;;12.95;6.05;;;-0.70;99.90;;;;;;5036646;28;20071;-68
2021/12/19 12:03:13;;;;;;;20.20;7.97;;;-0.70;99.90;;;;;;5036338;28;20026;-68
2021/12/19 12:05:39;;;;;;;17.98;7.05;;;-0.70;99.90;;;;;;5036034;28;20032;-68
2021/12/19 12:08:05;;;;;;;19.08;6.13;;;-0.60;99.90;;;;;;5035903;28;20025;-68
2021/12/19 12:10:49;;;;;;;22.20;7.20;;;-0.60;99.90;;;;;;5036068;28;20028;-68
2021/12/19 12:13:28;;;;;;;14.30;6.60;;;-0.50;99.90;;;;;;5035720;28;20033;-68
2021/12/19 12:16:05;;;;;;;18.38;6.50;;;-0.50;99.90;;;;;;5035558;28;20022;-68
2021/12/19 12:18:43;;;;;;;15.35;6.00;;;-0.40;99.90;;;;;;5035655;28;20474;-68
2021/12/19 12:24:07;;;;;;;18.52;7.30;;;-0.30;99.90;;;;;;5035592;28;20508;-68
2021/12/19 12:29:05;;;;;;;17.45;8.38;;;-0.10;99.90;;;;;;5035638;28;20504;-68
2021/12/19 12:31:34;;;;;;;22.63;8.10;;;-0.10;99.90;;;;;;5035053;28;20068;-68
2021/12/19 12:34:00;;;;;;;29.52;12.07;;;0.00;99.90;;;;;;5035353;28;20125;-68
2021/12/19 12:36:26;;;;;;;22.05;11.65;;;0.00;99.90;;;;;;5034195;28;20108;-68
2021/12/19 12:38:53;;;;;;;21.05;10.02;;;0.00;99.90;;;;;;5035137;28;20528;-68
2021/12/19 12:42:04;;;;;;;19.80;9.65;;;0.10;99.90;;;;;;5034973;28;20421;-67
2021/12/19 12:44:11;;;;;;;17.88;8.85;;;0.20;99.90;;;;;;5029099;28;20215;-68
2021/12/19 12:46:37;;;;;;;15.52;7.80;;;0.30;99.90;;;;;;5033533;28;20025;-67
2021/12/19 12:49:05;;;;;;;15.35;6.30;;;0.40;99.90;;;;;;5034635;28;20018;-67
2021/12/19 12:52:02;;;;;;;14.15;6.90;;;0.40;99.90;;;;;;5034958;28;20036;-68
2021/12/19 12:54:35;;;;;;;20.50;6.72;;;0.50;99.90;;;;;;5026879;28;20393;-67
2021/12/19 12:57:08;;;;;;;17.38;6.90;;;0.50;99.90;;;;;;5033358;28;20025;-68
2021/12/19 12:59:38;;;;;;;12.65;6.07;;;0.60;99.90;;;;;;5034625;28;20025;-68
2021/12/19 13:04:41;;;;;;;15.43;7.18;;;0.60;99.90;;;;;;5035022;28;20037;-68
2021/12/19 13:07:10;;;;;;;20.30;7.00;;;0.60;99.90;;;;;;5033245;28;20435;-68
2021/12/19 13:09:51;;;;;;;19.77;8.25;;;0.60;99.90;;;;;;5034330;28;20032;-68
2021/12/19 13:12:21;;;;;;;16.98;7.20;;;0.70;99.90;;;;;;5034277;28;20358;-68
2021/12/19 13:14:53;;;;;;;17.10;7.32;;;0.80;99.90;;;;;;5033082;28;20075;-68
2021/12/19 13:17:20;;;;;;;14.25;6.15;;;0.80;99.90;;;;;;5034174;28;20033;-68
2021/12/19 13:19:52;;;;;;;14.10;5.75;;;0.80;99.90;;;;;;5034523;28;20076;-68
2021/12/19 13:22:36;;;;;;;14.82;6.18;;;0.80;99.90;;;;;;5035098;28;20026;-67
2021/12/19 13:25:16;;;;;;;12.18;5.53;;;0.80;99.90;;;;;;5035518;28;20021;-68
2021/12/19 13:27:46;;;;;;;16.08;5.82;;;0.80;99.90;;;;;;5033700;28;20025;-68
2021/12/19 13:30:24;;;;;;;13.93;6.20;;;0.70;99.90;;;;;;5034534;28;20029;-68
2021/12/19 13:33:00;;;;;;;12.43;5.68;;;0.70;99.90;;;;;;5033856;28;20052;-68
2021/12/19 13:35:31;;;;;;;17.63;5.78;;;0.70;99.90;;;;;;5033906;28;20021;-68
2021/12/19 13:37:59;;;;;;;19.30;5.90;;;0.70;99.90;;;;;;5033871;28;20085;-68
2021/12/19 13:40:33;;;;;;;14.98;5.32;;;0.70;99.90;;;;;;5032724;28;20017;-68
2021/12/19 13:43:18;;;;;;;15.18;5.93;;;0.70;99.90;;;;;;5034078;28;20500;-68
2021/12/19 13:45:49;;;;;;;11.07;5.25;;;0.70;99.90;;;;;;5034013;28;20025;-68
2021/12/19 13:48:35;;;;;;;10.82;5.82;;;0.70;99.90;;;;;;5033602;28;20025;-68
2021/12/19 13:51:12;;;;;;;12.80;5.18;;;0.70;99.90;;;;;;5034163;28;20603;-68
2021/12/19 13:53:48;;;;;;;13.38;6.13;;;0.70;99.90;;;;;;5033895;28;20380;-68
2021/12/19 13:56:15;;;;;;;18.83;8.13;;;0.60;99.90;;;;;;5034077;28;20469;-68
2021/12/19 13:59:02;;;;;;;18.50;8.27;;;0.70;99.90;;;;;;5033527;28;20032;-68
2021/12/19 14:01:39;;;;;;;15.07;7.72;;;0.70;99.90;;;;;;5033823;28;20469;-68